createdAt,value
2017-06-27T00:00:36.451Z,14.10
2017-06-27T00:03:04.770Z,13.90
2017-06-27T00:05:32.283Z,13.90
2017-06-27T00:08:00.607Z,13.90
2017-06-27T00:10:28.124Z,13.90
2017-06-27T00:12:56.422Z,13.90
2017-06-27T00:15:23.932Z,13.80
2017-06-27T00:17:51.466Z,13.80
2017-06-27T00:20:19.003Z,13.70
2017-06-27T00:22:46.511Z,13.50
2017-06-27T00:25:14.047Z,13.50
2017-06-27T00:27:41.554Z,13.40
2017-06-27T00:30:09.886Z,13.30
2017-06-27T00:32:37.395Z,13.30
2017-06-27T00:35:05.675Z,13.20
2017-06-27T00:37:33.980Z,13.20
2017-06-27T00:40:01.520Z,13.10
2017-06-27T00:42:29.063Z,13.10
2017-06-27T00:44:57.339Z,13.00
2017-06-27T00:47:24.903Z,13.00
2017-06-27T00:49:53.440Z,13.00
2017-06-27T00:52:20.978Z,13.00
2017-06-27T00:54:48.487Z,12.90
2017-06-27T00:57:16.032Z,12.90
2017-06-27T00:59:43.579Z,12.80
2017-06-27T01:02:11.114Z,12.80
2017-06-27T01:04:38.656Z,12.70
2017-06-27T01:07:06.172Z,12.80
2017-06-27T01:09:33.706Z,12.70
2017-06-27T01:12:01.215Z,12.70
2017-06-27T01:14:29.532Z,12.60
2017-06-27T01:16:57.040Z,12.60
2017-06-27T01:19:24.875Z,12.50
2017-06-27T01:21:52.440Z,12.50
2017-06-27T01:24:19.955Z,12.60
2017-06-27T01:26:47.499Z,12.60
2017-06-27T01:29:15.784Z,12.50
2017-06-27T01:31:44.083Z,12.50
2017-06-27T01:34:11.623Z,12.50
2017-06-27T01:36:39.890Z,12.40
2017-06-27T01:39:08.199Z,12.40
2017-06-27T01:41:35.710Z,12.30
2017-06-27T01:44:03.548Z,12.30
2017-06-27T01:46:31.063Z,12.30
2017-06-27T01:48:59.339Z,12.30
2017-06-27T01:51:27.646Z,12.30
2017-06-27T01:53:55.151Z,12.30
2017-06-27T01:56:22.682Z,12.30
2017-06-27T01:58:50.211Z,12.30
2017-06-27T02:01:17.718Z,12.30
2017-06-27T02:03:45.245Z,12.30
2017-06-27T02:06:12.778Z,12.30
2017-06-27T02:08:40.317Z,12.20
2017-06-27T02:11:08.595Z,12.20
2017-06-27T02:13:36.871Z,12.10
2017-06-27T02:16:05.169Z,12.10
2017-06-27T02:18:32.677Z,12.10
2017-06-27T02:21:00.216Z,12.10
2017-06-27T02:23:27.720Z,12.00
2017-06-27T02:25:55.264Z,12.10
2017-06-27T02:28:23.554Z,12.10
2017-06-27T02:30:51.884Z,12.10
2017-06-27T02:33:19.391Z,12.10
2017-06-27T02:35:46.940Z,12.10
2017-06-27T02:38:14.511Z,12.10
2017-06-27T02:40:42.018Z,12.10
2017-06-27T02:43:09.559Z,12.10
2017-06-27T02:45:37.061Z,12.10
2017-06-27T02:48:04.603Z,12.10
2017-06-27T02:50:32.110Z,12.20
2017-06-27T02:53:00.420Z,12.20
2017-06-27T02:55:27.973Z,12.20
2017-06-27T02:57:55.494Z,12.20
2017-06-27T03:00:23.008Z,12.20
2017-06-27T03:02:50.555Z,12.20
2017-06-27T03:05:18.075Z,12.20
2017-06-27T03:07:45.616Z,12.20
2017-06-27T03:10:13.119Z,12.20
2017-06-27T03:12:41.429Z,12.20
2017-06-27T03:15:09.201Z,12.20
2017-06-27T03:17:36.735Z,12.30
2017-06-27T03:20:04.243Z,12.30
2017-06-27T03:22:31.751Z,12.30
2017-06-27T03:24:59.297Z,12.30
2017-06-27T03:27:27.571Z,12.40
2017-06-27T03:29:55.865Z,12.40
2017-06-27T03:32:23.376Z,12.30
2017-06-27T03:34:50.914Z,12.40
2017-06-27T03:37:18.416Z,12.40
2017-06-27T03:39:46.731Z,12.60
2017-06-27T03:42:14.244Z,12.60
2017-06-27T03:44:41.787Z,12.60
2017-06-27T03:47:09.330Z,12.60
2017-06-27T03:49:36.876Z,12.70
2017-06-27T03:52:04.378Z,12.70
2017-06-27T03:54:31.883Z,12.70
2017-06-27T03:56:59.438Z,12.80
2017-06-27T03:59:26.960Z,12.80
2017-06-27T04:01:55.285Z,12.90
2017-06-27T04:04:22.794Z,12.90
2017-06-27T04:06:50.296Z,13.00
2017-06-27T04:09:18.092Z,13.00
2017-06-27T04:11:45.608Z,13.10
2017-06-27T04:14:13.155Z,13.20
2017-06-27T04:16:41.436Z,13.30
2017-06-27T04:19:09.748Z,13.40
2017-06-27T04:21:37.248Z,13.40
2017-06-27T04:24:04.786Z,13.30
2017-06-27T04:26:32.361Z,13.40
2017-06-27T04:28:59.885Z,13.40
2017-06-27T04:31:27.443Z,13.40
2017-06-27T04:33:54.947Z,13.40
2017-06-27T04:36:22.545Z,13.40
2017-06-27T04:38:50.191Z,13.50
2017-06-27T04:41:18.526Z,13.50
2017-06-27T04:43:46.044Z,13.50
2017-06-27T04:46:13.564Z,13.60
2017-06-27T04:48:41.098Z,13.60
2017-06-27T04:51:08.640Z,13.70
2017-06-27T04:53:36.185Z,13.80
2017-06-27T04:56:03.761Z,13.90
2017-06-27T04:58:31.270Z,13.90
2017-06-27T05:01:00.139Z,14.00
2017-06-27T05:03:27.711Z,13.90
2017-06-27T05:05:55.224Z,14.00
2017-06-27T05:08:22.730Z,14.10
2017-06-27T05:10:50.262Z,14.20
2017-06-27T05:13:17.806Z,14.20
2017-06-27T05:15:45.333Z,14.30
2017-06-27T05:18:12.845Z,14.30
2017-06-27T05:20:40.379Z,14.40
2017-06-27T05:23:08.159Z,14.40
2017-06-27T05:25:35.946Z,14.40
2017-06-27T05:28:03.687Z,14.40
2017-06-27T05:30:31.276Z,14.50
2017-06-27T05:32:59.782Z,14.60
2017-06-27T05:35:28.065Z,14.60
2017-06-27T05:37:55.682Z,14.60
2017-06-27T05:40:23.195Z,14.60
2017-06-27T05:42:50.714Z,14.70
2017-06-27T05:45:18.247Z,14.70
2017-06-27T05:47:45.905Z,14.80
2017-06-27T05:50:13.418Z,14.90
2017-06-27T05:52:41.738Z,15.10
2017-06-27T05:55:09.246Z,15.10
2017-06-27T05:57:36.753Z,15.20
2017-06-27T06:00:04.328Z,15.30
2017-06-27T06:02:31.850Z,15.40
2017-06-27T06:04:59.366Z,15.50
2017-06-27T06:07:26.914Z,15.40
2017-06-27T06:09:54.429Z,15.40
2017-06-27T06:12:21.935Z,15.40
2017-06-27T06:14:49.467Z,15.50
2017-06-27T06:17:16.971Z,15.50
2017-06-27T06:19:44.526Z,15.60
2017-06-27T06:22:12.021Z,15.70
2017-06-27T06:24:39.823Z,15.80
2017-06-27T06:27:07.334Z,15.80
2017-06-27T06:29:34.837Z,15.90
2017-06-27T06:32:02.465Z,16.00
2017-06-27T06:34:29.981Z,15.90
2017-06-27T06:36:57.607Z,15.90
2017-06-27T06:39:25.154Z,16.00
2017-06-27T06:41:52.728Z,16.10
2017-06-27T06:44:20.291Z,16.20
2017-06-27T06:46:47.836Z,16.20
2017-06-27T06:49:15.358Z,16.20
2017-06-27T06:51:43.630Z,16.10
2017-06-27T06:54:11.186Z,16.10
2017-06-27T06:56:38.696Z,16.30
2017-06-27T06:59:06.243Z,16.40
2017-06-27T07:01:33.796Z,16.40
2017-06-27T07:04:01.364Z,16.40
2017-06-27T07:06:29.047Z,16.50
2017-06-27T07:08:56.547Z,16.70
2017-06-27T07:11:24.110Z,16.80
2017-06-27T07:13:51.627Z,17.00
2017-06-27T07:16:19.197Z,17.10
2017-06-27T07:18:46.703Z,17.20
2017-06-27T07:21:14.219Z,17.30
2017-06-27T07:23:41.809Z,17.30
2017-06-27T07:26:09.338Z,17.40
2017-06-27T07:28:36.900Z,17.50
2017-06-27T07:31:04.464Z,17.60
2017-06-27T07:33:32.109Z,17.80
2017-06-27T07:35:59.637Z,17.70
2017-06-27T07:38:27.181Z,17.60
2017-06-27T07:40:54.773Z,17.40
2017-06-27T07:43:22.331Z,17.40
2017-06-27T07:45:49.852Z,17.50
2017-06-27T07:48:18.168Z,17.80
2017-06-27T07:50:45.717Z,17.80
2017-06-27T07:53:13.301Z,17.90
2017-06-27T07:55:40.816Z,18.10
2017-06-27T07:58:09.154Z,18.40
2017-06-27T08:00:36.675Z,18.40
2017-06-27T08:03:04.216Z,18.50
2017-06-27T08:05:31.786Z,18.60
2017-06-27T08:07:59.291Z,18.60
2017-06-27T08:10:26.795Z,18.20
2017-06-27T08:12:54.356Z,18.10
2017-06-27T08:15:21.966Z,18.30
2017-06-27T08:17:49.506Z,18.10
2017-06-27T08:20:17.082Z,18.20
2017-06-27T08:22:44.608Z,18.40
2017-06-27T08:25:12.193Z,18.60
2017-06-27T08:27:39.967Z,18.70
2017-06-27T08:30:08.076Z,19.00
2017-06-27T08:32:35.630Z,19.10
2017-06-27T08:35:03.135Z,19.20
2017-06-27T08:37:30.652Z,19.20
2017-06-27T08:39:58.201Z,18.90
2017-06-27T08:42:25.701Z,19.10
2017-06-27T08:44:53.258Z,19.10
2017-06-27T08:47:20.764Z,19.10
2017-06-27T08:49:48.315Z,19.10
2017-06-27T08:52:15.823Z,19.00
2017-06-27T08:54:43.357Z,18.80
2017-06-27T08:57:10.928Z,19.10
2017-06-27T08:59:38.441Z,19.20
2017-06-27T09:02:05.950Z,19.10
2017-06-27T09:04:33.779Z,18.90
2017-06-27T09:07:01.278Z,18.90
2017-06-27T09:09:28.840Z,18.60
2017-06-27T09:11:56.370Z,18.20
2017-06-27T09:14:23.919Z,18.30
2017-06-27T09:16:51.432Z,18.70
2017-06-27T09:19:18.969Z,19.00
2017-06-27T09:21:46.523Z,19.10
2017-06-27T09:24:14.359Z,19.30
2017-06-27T09:26:41.904Z,19.50
2017-06-27T09:29:09.410Z,19.80
2017-06-27T09:31:36.961Z,19.90
2017-06-27T09:34:04.462Z,19.90
2017-06-27T09:36:31.968Z,19.90
2017-06-27T09:38:59.604Z,20.00
2017-06-27T09:41:27.378Z,20.20
2017-06-27T09:43:54.927Z,20.50
2017-06-27T09:46:22.442Z,20.70
2017-06-27T09:48:49.982Z,20.90
2017-06-27T09:51:17.486Z,21.10
2017-06-27T09:53:45.045Z,21.00
2017-06-27T09:56:12.568Z,20.90
2017-06-27T09:58:40.101Z,21.00
2017-06-27T10:01:07.644Z,21.00
2017-06-27T10:03:35.146Z,21.10
2017-06-27T10:06:02.714Z,21.10
2017-06-27T10:08:30.219Z,21.20
2017-06-27T10:10:57.722Z,21.20
2017-06-27T10:13:25.259Z,21.10
2017-06-27T10:15:52.763Z,21.10
2017-06-27T10:18:20.571Z,21.20
2017-06-27T10:20:48.077Z,20.80
2017-06-27T10:23:15.590Z,20.90
2017-06-27T10:25:43.150Z,21.10
2017-06-27T10:28:10.654Z,21.40
2017-06-27T10:30:38.996Z,21.90
2017-06-27T10:33:06.516Z,21.90
2017-06-27T10:35:34.032Z,22.10
2017-06-27T10:38:01.587Z,22.20
2017-06-27T10:40:29.091Z,22.40
2017-06-27T10:42:56.601Z,22.20
2017-06-27T10:45:24.445Z,21.60
2017-06-27T10:47:51.959Z,21.40
2017-06-27T10:50:20.241Z,21.40
2017-06-27T10:52:47.798Z,21.30
2017-06-27T10:55:16.079Z,20.40
2017-06-27T10:57:43.592Z,20.40
2017-06-27T11:00:11.175Z,20.70
2017-06-27T11:02:38.792Z,20.90
2017-06-27T11:05:06.331Z,21.20
2017-06-27T11:07:34.133Z,21.50
2017-06-27T11:10:01.701Z,21.90
2017-06-27T11:12:29.224Z,22.00
2017-06-27T11:14:56.794Z,22.10
2017-06-27T11:17:24.315Z,22.30
2017-06-27T11:19:51.864Z,22.40
2017-06-27T11:22:19.416Z,22.60
2017-06-27T11:24:47.252Z,22.70
2017-06-27T11:27:14.813Z,22.80
2017-06-27T11:29:42.344Z,22.90
2017-06-27T11:32:09.869Z,22.60
2017-06-27T11:34:38.208Z,22.60
2017-06-27T11:37:05.972Z,22.60
2017-06-27T11:39:33.840Z,22.80
2017-06-27T11:42:01.606Z,22.70
2017-06-27T11:44:29.127Z,22.30
2017-06-27T11:46:56.698Z,22.10
2017-06-27T11:49:24.234Z,21.90
2017-06-27T11:51:51.752Z,21.90
2017-06-27T11:54:19.304Z,22.00
2017-06-27T11:56:46.848Z,22.20
2017-06-27T11:59:14.374Z,22.60
2017-06-27T12:01:53.914Z,22.80
2017-06-27T12:04:32.379Z,23.30
2017-06-27T12:07:05.863Z,23.30
2017-06-27T12:09:33.526Z,23.40
2017-06-27T12:12:01.040Z,23.00
2017-06-27T12:14:29.547Z,23.00
2017-06-27T12:16:58.273Z,23.00
2017-06-27T12:19:25.800Z,23.00
2017-06-27T12:21:53.314Z,23.30
2017-06-27T12:24:20.933Z,23.50
2017-06-27T12:26:48.805Z,23.60
2017-06-27T12:29:16.464Z,23.20
2017-06-27T12:31:43.985Z,23.40
2017-06-27T12:34:12.585Z,23.10
2017-06-27T12:36:40.386Z,23.10
2017-06-27T12:39:07.896Z,23.40
2017-06-27T12:41:36.265Z,23.60
2017-06-27T12:44:04.549Z,23.30
2017-06-27T12:46:32.837Z,23.10
2017-06-27T12:49:01.049Z,23.10
2017-06-27T12:51:28.574Z,23.10
2017-06-27T12:53:56.100Z,23.10
2017-06-27T12:56:23.988Z,23.50
2017-06-27T12:58:52.272Z,23.70
2017-06-27T13:01:19.788Z,23.70
2017-06-27T13:03:47.332Z,23.80
2017-06-27T13:06:14.900Z,24.30
2017-06-27T13:08:42.440Z,24.70
2017-06-27T13:11:10.216Z,24.80
2017-06-27T13:13:38.086Z,24.90
2017-06-27T13:16:05.603Z,24.90
2017-06-27T13:21:25.634Z,25.20
2017-06-27T13:23:53.196Z,25.10
2017-06-27T13:26:20.717Z,25.40
2017-06-27T13:28:49.030Z,26.10
2017-06-27T13:31:16.530Z,26.10
2017-06-27T13:33:44.099Z,25.90
2017-06-27T13:36:11.611Z,25.90
2017-06-27T13:38:39.384Z,26.00
2017-06-27T13:41:07.036Z,26.40
2017-06-27T13:43:34.564Z,26.70
2017-06-27T13:46:02.155Z,26.90
2017-06-27T13:48:30.041Z,27.20
2017-06-27T13:50:57.551Z,27.20
2017-06-27T13:53:25.072Z,27.60
2017-06-27T13:55:52.914Z,27.90
2017-06-27T13:58:20.465Z,28.20
2017-06-27T14:00:47.974Z,28.60
2017-06-27T14:03:15.529Z,29.10
2017-06-27T14:05:43.042Z,28.50
2017-06-27T14:08:10.564Z,28.90
2017-06-27T14:10:38.884Z,29.10
2017-06-27T14:13:06.412Z,29.10
2017-06-27T14:15:34.730Z,28.90
2017-06-27T14:18:02.276Z,28.50
2017-06-27T14:20:29.779Z,28.70
2017-06-27T14:22:57.359Z,27.80
2017-06-27T14:25:24.873Z,27.70
2017-06-27T14:27:52.399Z,27.60
2017-06-27T14:30:19.947Z,28.00
2017-06-27T14:32:47.506Z,28.80
2017-06-27T14:35:15.398Z,29.60
2017-06-27T14:37:42.915Z,30.40
2017-06-27T14:40:11.235Z,29.80
2017-06-27T14:42:38.794Z,29.80
2017-06-27T14:45:06.358Z,30.20
2017-06-27T14:47:33.884Z,30.50
2017-06-27T14:50:01.437Z,31.00
2017-06-27T14:52:28.958Z,31.40
2017-06-27T14:54:56.474Z,31.00
2017-06-27T14:57:24.079Z,30.90
2017-06-27T14:59:51.596Z,31.20
2017-06-27T15:02:19.240Z,31.80
2017-06-27T15:04:46.886Z,32.60
2017-06-27T15:07:14.400Z,33.20
2017-06-27T15:09:41.919Z,32.40
2017-06-27T15:12:09.471Z,32.10
2017-06-27T15:14:36.993Z,32.20
2017-06-27T15:17:04.536Z,32.40
2017-06-27T15:19:32.089Z,32.10
2017-06-27T15:21:59.611Z,32.00
2017-06-27T15:24:27.925Z,32.80
2017-06-27T15:26:55.560Z,32.80
2017-06-27T15:29:23.080Z,33.10
2017-06-27T15:31:50.636Z,33.30
2017-06-27T15:34:18.188Z,33.70
2017-06-27T15:36:45.945Z,34.50
2017-06-27T15:39:13.526Z,34.30
2017-06-27T15:41:41.049Z,34.40
2017-06-27T15:44:08.565Z,34.70
2017-06-27T15:46:36.911Z,35.40
2017-06-27T15:49:04.435Z,35.40
2017-06-27T15:51:31.965Z,35.80
2017-06-27T15:53:59.517Z,36.10
2017-06-27T15:56:27.871Z,35.90
2017-06-27T15:58:55.395Z,35.90
2017-06-27T16:01:22.955Z,35.40
2017-06-27T16:03:50.484Z,35.50
2017-06-27T16:06:18.780Z,35.80
2017-06-27T16:08:46.785Z,35.80
2017-06-27T16:11:14.336Z,35.00
2017-06-27T16:13:41.866Z,34.80
2017-06-27T16:16:09.670Z,35.50
2017-06-27T16:18:37.187Z,36.00
2017-06-27T16:21:04.699Z,35.50
2017-06-27T16:23:32.271Z,35.90
2017-06-27T16:25:59.774Z,36.40
2017-06-27T16:28:27.319Z,36.20
2017-06-27T16:30:54.912Z,36.20
2017-06-27T16:33:22.473Z,36.60
2017-06-27T16:35:49.983Z,36.50
2017-06-27T16:38:18.304Z,37.00
2017-06-27T16:40:45.828Z,37.00
2017-06-27T16:43:15.400Z,37.30
2017-06-27T16:45:42.951Z,37.30
2017-06-27T16:48:10.488Z,37.40
2017-06-27T16:50:38.023Z,36.40
2017-06-27T16:53:05.561Z,36.10
2017-06-27T16:55:33.887Z,36.50
2017-06-27T16:58:01.398Z,36.50
2017-06-27T17:00:29.772Z,37.60
2017-06-27T17:02:57.289Z,37.60
2017-06-27T17:05:24.825Z,36.30
2017-06-27T17:07:52.367Z,36.00
2017-06-27T17:10:20.656Z,37.20
2017-06-27T17:12:48.246Z,37.10
2017-06-27T17:15:15.760Z,38.10
2017-06-27T17:17:50.252Z,39.00
2017-06-27T17:20:17.769Z,40.00
2017-06-27T17:22:45.305Z,39.90
2017-06-27T17:25:13.619Z,39.90
2017-06-27T17:27:41.161Z,39.90
2017-06-27T17:30:08.687Z,39.80
2017-06-27T17:32:36.198Z,40.00
2017-06-27T17:35:03.750Z,38.10
2017-06-27T17:37:31.281Z,36.50
2017-06-27T17:39:58.910Z,35.80
2017-06-27T17:42:26.451Z,35.20
2017-06-27T17:44:54.232Z,33.80
2017-06-27T17:47:21.992Z,33.50
2017-06-27T17:49:50.447Z,33.40
2017-06-27T17:52:18.031Z,33.40
2017-06-27T17:54:45.566Z,33.60
2017-06-27T17:57:13.102Z,33.90
2017-06-27T17:59:40.724Z,34.60
2017-06-27T18:02:08.335Z,35.10
2017-06-27T18:04:35.920Z,35.00
2017-06-27T18:07:03.440Z,35.40
2017-06-27T18:09:31.078Z,35.70
2017-06-27T18:11:59.405Z,34.60
2017-06-27T18:14:27.112Z,34.60
2017-06-27T18:16:54.656Z,34.20
2017-06-27T18:19:22.510Z,33.90
2017-06-27T18:21:50.055Z,33.80
2017-06-27T18:24:17.608Z,33.80
2017-06-27T18:26:45.198Z,33.50
2017-06-27T18:29:12.838Z,33.00
2017-06-27T18:31:40.359Z,32.30
2017-06-27T18:34:07.916Z,31.40
2017-06-27T18:36:36.227Z,29.40
2017-06-27T18:39:03.754Z,29.30
2017-06-27T18:41:32.060Z,28.40
2017-06-27T18:43:59.600Z,28.40
2017-06-27T18:46:28.830Z,28.10
2017-06-27T18:48:56.460Z,28.10
2017-06-27T18:51:24.130Z,27.40
2017-06-27T18:53:51.834Z,27.10
2017-06-27T18:56:19.605Z,26.90
2017-06-27T18:58:48.230Z,26.30
2017-06-27T19:01:16.235Z,26.30
2017-06-27T19:03:45.590Z,26.10
2017-06-27T19:06:13.425Z,25.90
2017-06-27T19:08:41.298Z,25.50
2017-06-27T19:11:09.132Z,25.10
2017-06-27T19:13:36.995Z,24.80
2017-06-27T19:16:04.851Z,24.60
2017-06-27T19:18:32.708Z,24.40
2017-06-27T19:21:00.545Z,24.10
2017-06-27T19:23:28.442Z,24.00
2017-06-27T19:25:56.302Z,23.70
2017-06-27T19:28:24.210Z,23.60
2017-06-27T19:30:52.104Z,23.50
2017-06-27T19:33:19.926Z,23.40
2017-06-27T19:35:47.859Z,23.20
2017-06-27T19:38:16.576Z,23.00
2017-06-27T19:40:45.390Z,23.00
2017-06-27T19:43:13.299Z,22.80
2017-06-27T19:45:41.173Z,22.60
2017-06-27T19:48:09.023Z,22.50
2017-06-27T19:50:36.879Z,22.40
2017-06-27T19:53:05.539Z,22.30
2017-06-27T19:55:33.419Z,22.20
2017-06-27T19:58:01.242Z,22.20
2017-06-27T20:00:29.146Z,22.10
2017-06-27T20:02:57.008Z,22.00
2017-06-27T20:05:26.477Z,21.80
2017-06-27T20:07:54.382Z,21.80
2017-06-27T20:10:22.198Z,21.70
2017-06-27T20:12:50.039Z,21.60
2017-06-27T20:15:17.913Z,21.50
2017-06-27T20:17:45.739Z,21.40
2017-06-27T20:20:13.567Z,21.40
2017-06-27T20:22:41.378Z,21.20
2017-06-27T20:25:09.178Z,21.00
2017-06-27T20:27:37.617Z,20.90
2017-06-27T20:30:05.199Z,20.80
2017-06-27T20:35:06.717Z,20.70
2017-06-27T20:37:34.232Z,20.70
2017-06-27T20:40:01.758Z,20.70
2017-06-27T20:42:29.319Z,20.70
2017-06-27T20:44:56.839Z,20.60
2017-06-27T20:47:24.416Z,20.60
2017-06-27T20:49:51.983Z,20.50
2017-06-27T20:52:19.522Z,20.50
2017-06-27T20:54:47.195Z,20.40
2017-06-27T20:57:15.566Z,20.20
2017-06-27T20:59:43.890Z,20.20
2017-06-27T21:02:11.667Z,20.20
2017-06-27T21:04:39.367Z,20.10
2017-06-27T21:07:07.049Z,20.10
2017-06-27T21:09:35.380Z,19.90
2017-06-27T21:12:02.895Z,19.90
2017-06-27T21:14:30.484Z,19.90
2017-06-27T21:16:58.027Z,19.80
2017-06-27T21:19:25.554Z,19.70
2017-06-27T21:24:27.013Z,19.40
2017-06-27T21:26:54.559Z,19.30
2017-06-27T21:29:22.304Z,19.30
2017-06-27T21:31:49.839Z,19.20
2017-06-27T21:34:17.400Z,19.20
2017-06-27T21:36:44.928Z,19.10
2017-06-27T21:39:12.471Z,19.10
2017-06-27T21:41:39.978Z,19.10
2017-06-27T21:44:07.527Z,19.10
2017-06-27T21:46:35.072Z,19.00
2017-06-27T21:49:03.346Z,19.00
2017-06-27T21:51:30.945Z,18.90
2017-06-27T21:53:58.451Z,18.90
2017-06-27T21:56:26.762Z,18.90
2017-06-27T21:58:54.305Z,18.80
2017-06-27T22:01:22.582Z,18.80
2017-06-27T22:03:50.159Z,18.80
2017-06-27T22:06:17.679Z,18.80
2017-06-27T22:08:45.240Z,18.70
2017-06-27T22:11:12.754Z,18.60
2017-06-27T22:13:40.268Z,18.50
2017-06-27T22:16:07.814Z,18.40
2017-06-27T22:18:35.344Z,18.30
2017-06-27T22:21:02.893Z,18.30
2017-06-27T22:23:30.431Z,18.20
2017-06-27T22:25:57.938Z,18.10
2017-06-27T22:28:25.483Z,18.00
2017-06-27T22:30:53.348Z,17.90
2017-06-27T22:33:20.900Z,18.00
2017-06-27T22:35:48.571Z,17.90
2017-06-27T22:38:16.098Z,18.00
2017-06-27T22:40:43.632Z,17.90
2017-06-27T22:43:11.178Z,17.90
2017-06-27T22:45:38.720Z,17.90
2017-06-27T22:48:06.275Z,17.80
2017-06-27T22:50:33.802Z,17.60
2017-06-27T22:53:01.320Z,17.60
2017-06-27T22:55:29.012Z,17.50
2017-06-27T22:57:56.531Z,17.50
2017-06-27T23:00:24.069Z,17.40
2017-06-27T23:02:51.590Z,17.40
2017-06-27T23:05:19.148Z,17.40
2017-06-27T23:07:46.737Z,17.40
2017-06-27T23:10:14.278Z,17.40
2017-06-27T23:12:41.856Z,17.30
2017-06-27T23:15:09.415Z,17.20
2017-06-27T23:17:36.941Z,17.20
2017-06-27T23:20:04.460Z,17.20
2017-06-27T23:22:32.007Z,17.20
2017-06-27T23:24:59.541Z,17.20
2017-06-27T23:27:27.083Z,17.20
2017-06-27T23:29:54.595Z,17.10
2017-06-27T23:32:22.130Z,17.00
2017-06-27T23:34:49.638Z,17.00
2017-06-27T23:37:17.943Z,16.90
2017-06-27T23:39:45.512Z,16.80
2017-06-27T23:42:13.067Z,16.80
2017-06-27T23:44:40.589Z,16.80
2017-06-27T23:47:08.082Z,16.70
2017-06-27T23:49:35.615Z,16.60
2017-06-27T23:52:03.883Z,16.60
2017-06-27T23:54:31.501Z,16.60
2017-06-27T23:56:59.087Z,16.70
2017-06-27T23:59:27.354Z,16.70
